Maria Desgagnes — VCWL — position and weather

sailwx.info

Track history (hours):
 
Tides and Currents Weather Stations Pressure Air Temp Water Temp Dewpoint Dewpoint Depression Visibility Wind Speed Wind Dir Waves Ship Positions

Maria Desgagnes

Last reported at 2015-Mar-19 17:34 UTC. Time now 2015-Mar-28 18:51 UTC.
Position N 49°10' W 058°21'.
Warning: this ship's position is 9 days out of date.

Length 120 m; draft 7 m.

Type: Ship. MMSI: 316285000.

Date/timePositionNaut miles runAvg speedWind from/ knotsBaromVisibWave heightAir tempDewpointWater temp
2015-Mar-19 17:34N 49°10' W 058°21'2 1.3
2015-Mar-19 16:05N 49°08' W 058°19'1 2.4
2015-Mar-19 15:31N 49°07' W 058°17'0 0.0
2015-Mar-19 11:13N 49°07' W 058°17'0 0.0
2015-Mar-19 10:33N 49°07' W 058°17'1 1.0
2015-Mar-19 09:33N 49°06' W 058°16'9 8.9
2015-Mar-19 08:33N 49°00' W 058°06'5 5.2
2015-Mar-19 07:33N 48°58' W 057°59'1 0.6
2015-Mar-19 06:33N 48°58' W 057°59'0 0.0
2015-Mar-19 05:30N 48°58' W 057°59'0 0.0
2015-Mar-19 04:33N 48°58' W 057°59'0 0.0
2015-Mar-19 03:33N 48°58' W 057°59'0 0.0
2015-Mar-19 02:33N 48°58' W 057°59'0 0.0
2015-Mar-19 01:33N 48°58' W 057°59'0 0.0
2015-Mar-19 00:33N 48°58' W 057°59'0 0.0
2015-Mar-18 23:27N 48°58' W 057°59'0 0.0
2015-Mar-18 22:33N 48°58' W 057°59'0 0.0
2015-Mar-18 21:33N 48°58' W 057°59'0 0.0
2015-Mar-18 20:33N 48°58' W 057°59'0 0.3
2015-Mar-18 19:33N 48°58' W 057°59'1 0.7
2015-Mar-18 18:33N 48°58' W 058°00'0 0.0
2015-Mar-18 17:33N 48°58' W 058°00'  
Track history (hours):
 
Tides and Currents Weather Stations Pressure Air Temp Water Temp Dewpoint Dewpoint Depression Visibility Wind Speed Wind Dir Waves Ship Positions

Maria Desgagnes

Last reported at 2015-Mar-19 17:34 UTC. Time now 2015-Mar-28 18:51 UTC.
Position N 49°10' W 058°21'.
Warning: this ship's position is 9 days out of date.

Length 120 m; draft 7 m.

Type: Ship. MMSI: 316285000.

Date/timePositionNaut miles runAvg speedWind from/ knotsBaromVisibWave heightAir tempDewpointWater temp
2015-Mar-19 17:34N 49°10' W 058°21'2 1.3
2015-Mar-19 16:05N 49°08' W 058°19'1 2.4
2015-Mar-19 15:31N 49°07' W 058°17'0 0.0
2015-Mar-19 11:13N 49°07' W 058°17'0 0.0
2015-Mar-19 10:33N 49°07' W 058°17'1 1.0
2015-Mar-19 09:33N 49°06' W 058°16'9 8.9
2015-Mar-19 08:33N 49°00' W 058°06'5 5.2
2015-Mar-19 07:33N 48°58' W 057°59'1 0.6
2015-Mar-19 06:33N 48°58' W 057°59'0 0.0
2015-Mar-19 05:30N 48°58' W 057°59'0 0.0
2015-Mar-19 04:33N 48°58' W 057°59'0 0.0
2015-Mar-19 03:33N 48°58' W 057°59'0 0.0
2015-Mar-19 02:33N 48°58' W 057°59'0 0.0
2015-Mar-19 01:33N 48°58' W 057°59'0 0.0
2015-Mar-19 00:33N 48°58' W 057°59'0 0.0
2015-Mar-18 23:27N 48°58' W 057°59'0 0.0
2015-Mar-18 22:33N 48°58' W 057°59'0 0.0
2015-Mar-18 21:33N 48°58' W 057°59'0 0.0
2015-Mar-18 20:33N 48°58' W 057°59'0 0.3
2015-Mar-18 19:33N 48°58' W 057°59'1 0.7
2015-Mar-18 18:33N 48°58' W 058°00'0 0.0
2015-Mar-18 17:33N 48°58' W 058°00'  

Dump ship's entire track history